createdAt,value
2022-11-19T00:02:24.012Z,11.35
2022-11-19T00:07:21.021Z,12.63
2022-11-19T00:12:36.262Z,11.57
2022-11-19T00:17:34.114Z,11.90
2022-11-19T00:22:31.183Z,12.32
2022-11-19T00:27:28.145Z,13.05
2022-11-19T00:32:25.499Z,14.50
2022-11-19T00:37:23.388Z,15.05
2022-11-19T00:42:21.067Z,15.88
2022-11-19T00:47:20.853Z,14.98
2022-11-19T00:52:20.790Z,15.85
2022-11-19T00:57:18.772Z,16.55
2022-11-19T01:02:16.043Z,15.10
2022-11-19T01:07:13.403Z,19.23
2022-11-19T01:12:10.491Z,16.80
2022-11-19T01:17:08.375Z,17.25
2022-11-19T01:22:05.314Z,19.98
2022-11-19T01:27:02.302Z,18.40
2022-11-19T01:31:59.346Z,19.10
2022-11-19T01:36:57.049Z,20.08
2022-11-19T01:41:54.212Z,19.05
2022-11-19T01:46:51.345Z,20.27
2022-11-19T01:51:52.039Z,19.45
2022-11-19T01:56:49.955Z,18.40
2022-11-19T02:01:47.315Z,17.73
2022-11-19T02:06:45.645Z,17.80
2022-11-19T02:12:13.337Z,17.88
2022-11-19T02:17:19.234Z,17.30
2022-11-19T02:22:41.552Z,17.38
2022-11-19T02:28:14.839Z,20.45
2022-11-19T02:33:16.979Z,18.45
2022-11-19T02:38:24.123Z,17.30
2022-11-19T02:43:25.962Z,16.02
2022-11-19T02:48:29.979Z,16.40
2022-11-19T02:53:26.956Z,17.38
2022-11-19T02:58:38.620Z,16.00
2022-11-19T03:03:54.690Z,14.48
2022-11-19T03:08:51.932Z,15.15
2022-11-19T03:14:13.462Z,13.85
2022-11-19T03:19:23.769Z,12.30
2022-11-19T03:24:24.346Z,13.43
2022-11-19T03:29:25.183Z,11.85
2022-11-19T03:34:25.272Z,12.45
2022-11-19T03:39:23.177Z,12.25
2022-11-19T03:44:25.816Z,12.55
2022-11-19T03:49:31.042Z,11.27
2022-11-19T03:54:28.311Z,10.93
2022-11-19T03:59:29.687Z,12.70
2022-11-19T04:04:36.879Z,10.55
2022-11-19T04:09:34.392Z,11.13
2022-11-19T04:14:31.708Z,9.98
2022-11-19T04:19:29.404Z,9.07
2022-11-19T04:24:26.456Z,9.52
2022-11-19T04:29:23.433Z,8.68
2022-11-19T04:34:20.511Z,9.85
2022-11-19T04:39:18.534Z,9.88
2022-11-19T04:44:15.864Z,9.90
2022-11-19T04:49:13.026Z,10.60
2022-11-19T04:54:10.012Z,9.90
2022-11-19T04:59:07.755Z,10.02
2022-11-19T05:04:05.051Z,9.20
2022-11-19T05:09:02.167Z,10.95
2022-11-19T05:13:59.281Z,10.45
2022-11-19T05:18:57.330Z,8.77
2022-11-19T05:23:56.472Z,10.23
2022-11-19T05:28:53.513Z,9.45
2022-11-19T05:33:52.679Z,9.93
2022-11-19T05:38:50.586Z,10.07
2022-11-19T05:43:47.622Z,9.85
2022-11-19T05:48:45.140Z,9.77
2022-11-19T05:53:42.500Z,8.23
2022-11-19T05:58:40.356Z,8.45
2022-11-19T06:03:37.789Z,8.02
2022-11-19T06:08:34.691Z,8.23
2022-11-19T06:13:31.799Z,8.73
2022-11-19T06:18:29.929Z,9.73
2022-11-19T06:23:27.700Z,8.52
2022-11-19T06:28:24.730Z,8.23
2022-11-19T06:33:22.035Z,9.30
2022-11-19T06:38:20.909Z,9.15
2022-11-19T06:43:27.172Z,8.60
2022-11-19T06:48:24.602Z,10.90
2022-11-19T06:53:22.983Z,8.23
2022-11-19T06:58:20.202Z,8.40
2022-11-19T07:03:18.693Z,8.35
2022-11-19T07:08:21.493Z,8.00
2022-11-19T07:13:19.480Z,8.60
2022-11-19T07:18:17.687Z,8.85
2022-11-19T07:23:14.878Z,7.63
2022-11-19T07:28:14.885Z,8.20
2022-11-19T07:33:14.771Z,9.38
2022-11-19T07:38:12.183Z,8.15
2022-11-19T07:43:09.511Z,7.93
2022-11-19T07:48:08.211Z,7.75
2022-11-19T07:53:08.740Z,7.30
2022-11-19T07:58:06.555Z,8.10
2022-11-19T08:03:05.217Z,6.68
2022-11-19T08:08:02.817Z,7.43
2022-11-19T08:13:05.488Z,6.10
2022-11-19T08:18:16.839Z,6.35
2022-11-19T08:23:16.720Z,6.88
2022-11-19T08:28:14.826Z,5.57
2022-11-19T08:33:11.901Z,6.65
2022-11-19T08:38:12.366Z,6.68
2022-11-19T08:43:09.487Z,6.32
2022-11-19T08:48:09.865Z,5.40
2022-11-19T08:53:07.541Z,5.05
2022-11-19T08:58:07.589Z,4.53
2022-11-19T09:03:06.514Z,5.80
2022-11-19T09:08:09.654Z,5.93
2022-11-19T09:13:23.449Z,5.10
2022-11-19T09:18:33.856Z,4.18
2022-11-19T09:23:35.867Z,4.55
2022-11-19T09:28:36.650Z,3.92
2022-11-19T09:33:42.034Z,4.57
2022-11-19T09:38:40.508Z,4.88
2022-11-19T09:43:53.976Z,4.22
2022-11-19T09:48:55.153Z,4.72
2022-11-19T09:53:57.083Z,4.03
2022-11-19T09:58:57.051Z,5.20
2022-11-19T10:03:56.553Z,4.53
2022-11-19T10:09:26.754Z,4.25
2022-11-19T10:14:47.564Z,6.40
2022-11-19T10:19:59.742Z,4.07
2022-11-19T10:25:04.720Z,4.70
2022-11-19T10:30:06.541Z,4.30
2022-11-19T10:35:16.879Z,4.47
2022-11-19T10:40:20.534Z,3.80
2022-11-19T10:45:21.934Z,4.63
2022-11-19T10:50:23.717Z,4.93
2022-11-19T10:55:28.856Z,4.15
2022-11-19T11:00:26.579Z,3.97
2022-11-19T11:05:29.331Z,3.40
2022-11-19T11:10:34.804Z,3.40
2022-11-19T11:15:32.822Z,4.60
2022-11-19T11:20:32.762Z,3.75
2022-11-19T11:25:38.993Z,3.70
2022-11-19T11:30:36.508Z,3.60
2022-11-19T11:35:38.037Z,3.63
2022-11-19T11:40:35.668Z,3.20
2022-11-19T11:45:35.300Z,3.10
2022-11-19T11:50:34.941Z,3.22
2022-11-19T11:55:33.060Z,3.30
2022-11-19T12:00:38.901Z,3.20
2022-11-19T12:05:51.077Z,2.97
2022-11-19T12:10:56.304Z,3.40
2022-11-19T12:16:05.415Z,2.80
2022-11-19T12:21:11.728Z,3.13
2022-11-19T12:26:20.281Z,2.80
2022-11-19T12:31:32.090Z,3.22
2022-11-19T12:36:38.371Z,2.50
2022-11-19T12:41:58.518Z,3.13
2022-11-19T12:47:00.723Z,3.10
2022-11-19T12:52:08.630Z,3.28
2022-11-19T12:57:33.100Z,3.22
2022-11-19T13:02:46.295Z,3.35
2022-11-19T13:07:47.603Z,2.65
2022-11-19T13:12:50.569Z,3.13
2022-11-19T13:17:52.584Z,2.25
2022-11-19T13:22:55.507Z,3.58
2022-11-19T13:27:58.068Z,4.23
2022-11-19T13:33:05.400Z,4.05
2022-11-19T13:38:12.871Z,3.53
2022-11-19T13:43:33.118Z,3.45
2022-11-19T13:48:34.555Z,3.78
2022-11-19T13:53:38.532Z,4.85
2022-11-19T13:58:37.795Z,6.78
2022-11-19T14:03:53.603Z,4.40
2022-11-19T14:09:08.005Z,4.05
2022-11-19T14:14:32.320Z,3.53
2022-11-19T14:19:53.001Z,3.55
2022-11-19T14:25:13.905Z,2.83
2022-11-19T14:30:19.890Z,6.45
2022-11-19T14:35:38.196Z,3.90
2022-11-19T14:40:42.468Z,10.80
2022-11-19T14:46:19.652Z,5.47
2022-11-19T14:56:22.321Z,7.72
2022-11-19T15:01:23.321Z,6.20
2022-11-19T15:06:21.258Z,5.88
2022-11-19T15:11:20.752Z,8.95
2022-11-19T15:16:21.972Z,7.25
2022-11-19T15:21:42.303Z,9.60
2022-11-19T15:27:58.731Z,8.18
2022-11-19T15:33:46.775Z,7.07
2022-11-19T15:38:50.438Z,8.98
2022-11-19T15:43:51.456Z,9.15
2022-11-19T15:49:00.340Z,9.88
2022-11-19T15:54:02.137Z,9.70
2022-11-19T15:59:00.990Z,6.90
2022-11-19T16:03:59.827Z,7.97
2022-11-19T16:09:02.899Z,8.73
2022-11-19T16:14:28.315Z,12.20
2022-11-19T16:19:26.372Z,12.43
2022-11-19T16:24:43.520Z,10.73
2022-11-19T16:29:43.252Z,10.00
2022-11-19T16:34:44.621Z,10.50
2022-11-19T16:39:50.330Z,9.90
2022-11-19T16:44:49.358Z,8.60
2022-11-19T16:49:58.905Z,8.90
2022-11-19T16:54:56.386Z,9.65
2022-11-19T16:59:56.869Z,8.45
2022-11-19T17:04:58.391Z,8.52
2022-11-19T17:10:26.249Z,9.23
2022-11-19T17:15:36.259Z,9.13
2022-11-19T17:20:50.991Z,8.38
2022-11-19T17:25:49.766Z,9.07
2022-11-19T17:30:49.052Z,8.90
2022-11-19T17:35:47.495Z,10.38
2022-11-19T17:40:47.791Z,11.35
2022-11-19T17:45:45.194Z,11.85
2022-11-19T17:50:51.827Z,11.50
2022-11-19T17:55:52.736Z,11.70
2022-11-19T18:00:51.189Z,10.00
2022-11-19T18:05:52.374Z,11.93
2022-11-19T18:10:50.346Z,10.65
2022-11-19T18:15:47.559Z,9.68
2022-11-19T18:20:44.526Z,9.63
2022-11-19T18:25:41.924Z,8.25
2022-11-19T18:30:40.235Z,7.70
2022-11-19T18:35:37.288Z,6.15
2022-11-19T18:40:36.316Z,5.28
2022-11-19T18:45:34.400Z,7.07
2022-11-19T18:50:33.242Z,7.53
2022-11-19T18:55:30.719Z,6.05
2022-11-19T19:00:27.748Z,5.75
2022-11-19T19:05:28.681Z,6.20
2022-11-19T19:10:26.495Z,7.47
2022-11-19T19:15:24.394Z,6.53
2022-11-19T19:20:21.401Z,5.85
2022-11-19T19:25:19.445Z,5.70
2022-11-19T19:30:18.328Z,5.68
2022-11-19T19:35:15.767Z,4.85
2022-11-19T19:40:15.438Z,4.93
2022-11-19T19:45:13.418Z,5.82
2022-11-19T19:50:11.560Z,6.03
2022-11-19T19:55:09.664Z,8.25
2022-11-19T20:00:08.586Z,6.25
2022-11-19T20:05:10.380Z,8.25
2022-11-19T20:10:10.596Z,8.48
2022-11-19T20:15:09.959Z,8.40
2022-11-19T20:20:08.110Z,11.05
2022-11-19T20:25:11.041Z,10.57
2022-11-19T20:30:12.330Z,11.13
2022-11-19T20:35:09.613Z,14.30
2022-11-19T20:40:09.246Z,12.70
2022-11-19T20:45:07.737Z,13.25
2022-11-19T20:50:05.416Z,15.60
2022-11-19T20:55:06.652Z,17.08
2022-11-19T21:00:06.509Z,14.80
2022-11-19T21:05:04.098Z,15.55
2022-11-19T21:10:06.423Z,16.50
2022-11-19T21:15:06.571Z,17.50
2022-11-19T21:20:03.779Z,15.25
2022-11-19T21:25:01.135Z,14.93
2022-11-19T21:29:58.173Z,22.50
2022-11-19T21:34:55.936Z,19.77
2022-11-19T21:39:52.910Z,19.10
2022-11-19T21:44:49.910Z,22.85
2022-11-19T21:49:46.800Z,25.27
2022-11-19T21:54:44.394Z,24.55
2022-11-19T21:59:41.510Z,27.88
2022-11-19T22:04:38.578Z,25.08
2022-11-19T22:09:35.686Z,24.17
2022-11-19T22:14:35.965Z,26.02
2022-11-19T22:19:33.043Z,29.17
2022-11-19T22:24:30.258Z,26.92
2022-11-19T22:29:27.375Z,27.45
2022-11-19T22:34:25.262Z,27.90
2022-11-19T22:39:22.494Z,23.98
2022-11-19T22:44:19.874Z,25.75
2022-11-19T22:49:16.971Z,28.98
2022-11-19T22:54:15.516Z,27.50
2022-11-19T22:59:12.473Z,34.25
2022-11-19T23:04:14.059Z,29.40
2022-11-19T23:09:11.011Z,28.88
2022-11-19T23:14:11.035Z,32.25
2022-11-19T23:19:09.013Z,31.98
2022-11-19T23:24:06.504Z,37.47
2022-11-19T23:29:04.438Z,28.73
2022-11-19T23:34:02.410Z,30.10
2022-11-19T23:38:59.981Z,39.35
2022-11-19T23:43:56.822Z,37.00
2022-11-19T23:48:55.584Z,36.65
2022-11-19T23:53:53.289Z,33.92
2022-11-19T23:58:56.055Z,36.22
